createdAt,value
2016-06-29T09:04:16.769Z,39.88
2016-06-29T09:05:15.662Z,40.27
2016-06-29T09:06:15.670Z,40.66
2016-06-29T09:07:15.082Z,40.83
2016-06-29T09:08:15.691Z,40.83
2016-06-29T09:09:16.303Z,41.13
2016-06-29T09:10:15.126Z,41.22
2016-06-29T09:11:15.113Z,41.13
2016-06-29T09:12:15.151Z,41.22
2016-06-29T09:13:15.147Z,41.13
2016-06-29T09:14:15.158Z,41.13
2016-06-29T09:15:15.166Z,41.22
2016-06-29T09:16:15.792Z,41.13
2016-06-29T09:17:15.809Z,41.13
2016-06-29T09:18:15.199Z,41.42
2016-06-29T09:19:15.215Z,41.13
2016-06-29T09:20:15.829Z,40.64
2016-06-29T09:21:15.845Z,40.83
2016-06-29T09:22:15.866Z,40.73
2016-06-29T09:23:15.855Z,40.45
2016-06-29T09:24:15.259Z,40.56
2016-06-29T09:25:15.886Z,40.47
2016-06-29T09:26:15.900Z,40.56
2016-06-29T09:27:15.904Z,40.58
2016-06-29T09:28:15.307Z,40.58
2016-06-29T09:29:15.320Z,40.68
2016-06-29T09:30:15.935Z,40.37
2016-06-29T09:31:15.354Z,40.76
2016-06-29T09:32:15.967Z,40.66
2016-06-29T09:33:15.958Z,40.83
2016-06-29T09:34:15.974Z,40.56
2016-06-29T09:35:15.387Z,40.55
2016-06-29T09:36:15.391Z,40.64
2016-06-29T09:37:15.386Z,41.03
2016-06-29T09:38:15.399Z,40.81
2016-06-29T09:39:15.428Z,41.01
2016-06-29T09:40:16.033Z,41.11
2016-06-29T09:41:16.034Z,41.28
2016-06-29T09:42:15.441Z,41.09
2016-06-29T09:43:15.448Z,41.09
2016-06-29T09:44:16.061Z,41.28
2016-06-29T09:45:16.087Z,41.28
2016-06-29T09:46:15.487Z,41.09
2016-06-29T09:47:15.480Z,40.5
2016-06-29T09:48:15.499Z,40.81
2016-06-29T09:49:15.507Z,40.42
2016-06-29T09:50:16.129Z,40.25
2016-06-29T09:51:16.133Z,39.96
2016-06-29T09:52:16.136Z,39.08
2016-06-29T09:53:16.146Z,39.28
2016-06-29T09:54:16.177Z,39.37
2016-06-29T09:55:16.170Z,38.98
2016-06-29T09:56:16.171Z,38.59
2016-06-29T09:57:15.574Z,38.49
2016-06-29T09:58:16.191Z,38.4
2016-06-29T09:59:15.588Z,38.3
2016-06-29T10:00:16.219Z,38.01
2016-06-29T10:01:16.222Z,37.81
2016-06-29T10:02:16.240Z,37.73
2016-06-29T10:03:17.109Z,37.73
2016-06-29T10:04:19.851Z,37.83
2016-06-29T10:05:17.566Z,37.63
2016-06-29T10:06:17.122Z,37.54
2016-06-29T10:07:16.479Z,37.63
2016-06-29T10:08:16.709Z,37.45
2016-06-29T10:09:16.292Z,37.93
2016-06-29T10:10:15.691Z,37.45
2016-06-29T10:11:16.307Z,37.52
2016-06-29T10:12:15.711Z,37.52
2016-06-29T10:13:15.718Z,37.99
2016-06-29T10:14:17.283Z,38.48
2016-06-29T10:15:15.740Z,39.72
2016-06-29T10:16:17.205Z,41.36
2016-06-29T10:17:16.655Z,42.9
2016-06-29T10:18:16.922Z,44.92
2016-06-29T10:19:16.837Z,46.94
2016-06-29T10:20:16.434Z,48.18
2016-06-29T10:21:15.828Z,50.48
2016-06-29T10:22:16.407Z,52.69
2016-06-29T10:23:15.808Z,54.6
2016-06-29T10:24:16.267Z,56.23
2016-06-29T10:25:16.427Z,58.04
2016-06-29T10:26:16.599Z,60.43
2016-06-29T10:27:16.435Z,62.24
2016-06-29T10:29:16.451Z,65.53
2016-06-29T10:30:16.852Z,67.04
2016-06-29T10:31:16.559Z,67.78
2016-06-29T10:32:16.919Z,69.62
2016-06-29T10:33:16.223Z,70.61
2016-06-29T10:34:15.874Z,71.77
2016-06-29T10:35:16.509Z,72.63
2016-06-29T10:36:16.491Z,73.66
2016-06-29T10:37:15.881Z,73.95
2016-06-29T10:38:15.894Z,75.2
2016-06-29T10:39:16.510Z,76.07
2016-06-29T10:40:15.898Z,76.17
2016-06-29T10:41:15.902Z,76.84
2016-06-29T10:42:17.379Z,77.33
2016-06-29T10:43:16.517Z,77.71
2016-06-29T10:44:16.525Z,77.61
2016-06-29T10:45:15.910Z,78
2016-06-29T10:47:17.743Z,78.61
2016-06-29T10:48:15.940Z,78.61
2016-06-29T10:49:15.931Z,78.94
2016-06-29T10:50:16.560Z,78.56
2016-06-29T10:52:15.945Z,79.08
2016-06-29T10:53:16.565Z,78.99
2016-06-29T10:54:15.955Z,78.41
2016-06-29T10:55:16.562Z,78.15
2016-06-29T10:56:15.961Z,78.54
2016-06-29T10:57:16.573Z,77.67
2016-06-29T10:58:15.974Z,77.73
2016-06-29T10:59:16.595Z,77.25
2016-06-29T11:00:15.982Z,77.25
2016-06-29T11:01:15.978Z,77.63
2016-06-29T11:02:15.989Z,77.44
2016-06-29T11:03:15.999Z,77.53
2016-06-29T11:04:15.994Z,76.76
2016-06-29T11:05:16.614Z,76.15
2016-06-29T11:06:16.619Z,77.01
2016-06-29T11:07:16.013Z,76.72
2016-06-29T11:08:16.635Z,76.72
2016-06-29T11:09:16.018Z,76.92
2016-06-29T11:10:16.038Z,76.63
2016-06-29T11:11:16.640Z,76.63
2016-06-29T11:12:16.652Z,76.82
2016-06-29T11:13:16.643Z,76.15
2016-06-29T11:14:16.657Z,75.76
2016-06-29T11:15:16.062Z,75.57
2016-06-29T11:16:16.683Z,76.15
2016-06-29T11:17:16.662Z,75.57
2016-06-29T11:18:16.069Z,76.24
2016-06-29T11:19:16.678Z,75.95
2016-06-29T11:20:16.674Z,75.47
2016-06-29T11:21:17.237Z,76.34
2016-06-29T11:22:17.475Z,76.05
2016-06-29T11:23:17.406Z,76.43
2016-06-29T11:24:16.081Z,75.95
2016-06-29T11:25:16.692Z,75.95
2016-06-29T11:26:16.087Z,75.41
2016-06-29T11:27:16.743Z,76.09
2016-06-29T11:28:16.097Z,75.51
2016-06-29T11:29:16.092Z,75.02
2016-06-29T11:30:16.096Z,74.16
2016-06-29T11:31:16.727Z,74.35
2016-06-29T11:32:16.887Z,74.44
2016-06-29T11:33:16.735Z,74.16
2016-06-29T11:34:17.020Z,73.86
2016-06-29T11:35:16.743Z,74.16
2016-06-29T11:36:17.175Z,74.16
2016-06-29T11:37:16.130Z,74.16
2016-06-29T11:38:16.822Z,73.38
2016-06-29T11:39:17.043Z,73.28
2016-06-29T11:40:16.739Z,73.09
2016-06-29T11:42:16.147Z,72.42
2016-06-29T11:43:16.779Z,71.58
2016-06-29T11:44:16.750Z,70.97
2016-06-29T11:45:16.779Z,71.2
2016-06-29T11:46:17.021Z,70.9
2016-06-29T11:47:16.769Z,70.72
2016-06-29T11:48:17.532Z,70.81
2016-06-29T11:49:17.281Z,69.74
2016-06-29T11:50:16.798Z,69.17
2016-06-29T11:51:17.282Z,69.07
2016-06-29T11:52:16.788Z,68.68
2016-06-29T11:53:16.793Z,68.78
2016-06-29T11:54:16.190Z,67.75
2016-06-29T11:55:16.810Z,68.59
2016-06-29T11:56:16.793Z,67.72
2016-06-29T11:57:16.815Z,67.85
2016-06-29T11:58:16.206Z,67.85
2016-06-29T11:59:16.841Z,67.85
2016-06-29T12:00:16.841Z,67.36
2016-06-29T12:01:16.851Z,66.59
2016-06-29T12:02:16.839Z,66.2
2016-06-29T12:03:16.214Z,65.82
2016-06-29T12:04:16.839Z,64.76
2016-06-29T12:05:16.840Z,64.66
2016-06-29T12:06:16.843Z,63.73
2016-06-29T12:07:16.242Z,64.31
2016-06-29T12:08:16.854Z,64.11
2016-06-29T12:09:16.863Z,64.4
2016-06-29T12:10:16.857Z,64.21
2016-06-29T12:11:16.877Z,64.31
2016-06-29T12:12:16.257Z,64.4
2016-06-29T12:13:16.873Z,64.34
2016-06-29T12:14:16.261Z,63.76
2016-06-29T12:15:16.871Z,63.27
2016-06-29T12:16:16.882Z,62.3
2016-06-29T12:17:16.287Z,62.01
2016-06-29T12:18:16.897Z,62.11
2016-06-29T12:19:16.894Z,61.63
2016-06-29T12:20:16.902Z,61.53
2016-06-29T12:21:16.286Z,61.24
2016-06-29T12:22:16.902Z,60.47
2016-06-29T12:23:16.312Z,59.69
2016-06-29T12:24:16.917Z,59.59
2016-06-29T12:25:16.943Z,59.89
2016-06-29T12:26:16.322Z,59.89
2016-06-29T12:27:16.922Z,59.31
2016-06-29T12:28:16.931Z,58.75
2016-06-29T12:29:16.933Z,58.85
2016-06-29T12:30:16.933Z,58.56
2016-06-29T12:31:16.344Z,58.27
2016-06-29T12:32:16.940Z,57.3
2016-06-29T12:33:16.337Z,56.94
2016-06-29T12:34:16.953Z,56.94
2016-06-29T12:35:16.984Z,55.88
2016-06-29T12:36:16.971Z,55.98
2016-06-29T12:37:16.969Z,55.3
2016-06-29T12:38:16.975Z,54.43
2016-06-29T12:39:16.979Z,54.26
2016-06-29T12:40:18.790Z,53.58
2016-06-29T12:41:16.990Z,53.58
2016-06-29T12:42:17.002Z,52.61
2016-06-29T12:43:16.391Z,52.51
2016-06-29T12:44:16.454Z,51.93
2016-06-29T12:45:16.651Z,51.45
2016-06-29T12:46:17.012Z,50.77
2016-06-29T12:47:16.409Z,50.31
2016-06-29T12:48:17.286Z,50.48
2016-06-29T12:49:16.418Z,50.21
2016-06-29T12:50:16.421Z,50.02
2016-06-29T12:51:17.050Z,49.54
2016-06-29T12:52:17.039Z,49.54
2016-06-29T12:53:16.438Z,49.34
2016-06-29T12:54:17.048Z,48.85
2016-06-29T12:56:17.957Z,48.27
2016-06-29T12:57:17.068Z,48.18
2016-06-29T12:58:17.467Z,47.81
2016-06-29T12:59:17.069Z,47.72
2016-06-29T13:00:16.484Z,48
2016-06-29T13:01:17.085Z,47.81
2016-06-29T13:02:16.633Z,47.64
2016-06-29T13:03:17.105Z,47.25
2016-06-29T13:04:17.107Z,46.96
2016-06-29T13:05:18.190Z,46.96
2016-06-29T13:06:16.496Z,46.86
2016-06-29T13:07:16.911Z,46.41
2016-06-29T13:08:16.512Z,46.01
2016-06-29T13:09:16.522Z,45.82
2016-06-29T13:10:16.523Z,45.43
2016-06-29T13:11:17.183Z,45.26
2016-06-29T13:12:16.550Z,44.97
2016-06-29T13:13:17.145Z,44.51
2016-06-29T13:14:16.545Z,44.31
2016-06-29T13:15:17.159Z,43.92
2016-06-29T13:16:17.163Z,43.73
2016-06-29T13:17:16.573Z,43.36
2016-06-29T13:18:16.579Z,43.65
2016-06-29T13:19:17.210Z,42.87
2016-06-29T13:20:16.591Z,43.26
2016-06-29T13:21:16.595Z,43.16
2016-06-29T13:22:17.207Z,43.16
2016-06-29T13:23:16.610Z,43.07
2016-06-29T13:24:16.606Z,43.07
2016-06-29T13:25:16.617Z,43.15
2016-06-29T13:26:17.234Z,43.24
2016-06-29T13:27:17.231Z,43.15
2016-06-29T13:28:16.638Z,43.32
2016-06-29T13:29:16.658Z,43.61
2016-06-29T13:30:16.642Z,44
2016-06-29T13:31:16.668Z,44.17
2016-06-29T13:32:17.271Z,44.65
2016-06-29T13:33:16.667Z,44.75
2016-06-29T13:34:16.666Z,45.14
2016-06-29T13:35:17.290Z,45.43
2016-06-29T13:36:16.697Z,46.38
2016-06-29T13:37:16.692Z,46.96
2016-06-29T13:38:17.299Z,47.93
2016-06-29T13:39:17.311Z,48.49
2016-06-29T13:40:17.314Z,49.66
2016-06-29T13:41:16.711Z,50.24
2016-06-29T13:42:16.717Z,51.96
2016-06-29T13:43:17.333Z,53.7
2016-06-29T13:44:17.346Z,55.83
2016-06-29T13:45:17.350Z,57.26
2016-06-29T13:46:16.745Z,58.59
2016-06-29T13:47:16.743Z,59.07
2016-06-29T13:48:17.367Z,59.94
2016-06-29T13:49:17.362Z,60.91
2016-06-29T13:50:17.396Z,61.59
2016-06-29T13:51:17.390Z,62.46
2016-06-29T13:52:17.380Z,62.27
2016-06-29T13:53:17.428Z,62.4
2016-06-29T13:54:17.403Z,62.59
2016-06-29T13:55:17.397Z,62.88
2016-06-29T13:56:17.399Z,62.43
2016-06-29T13:57:17.404Z,62.13
2016-06-29T13:58:17.441Z,62.33
2016-06-29T13:59:17.422Z,62.33
2016-06-29T14:00:17.786Z,62.23
2016-06-29T14:01:17.437Z,61.94
2016-06-29T14:02:16.831Z,61.85
2016-06-29T14:03:17.483Z,61.46
2016-06-29T14:04:16.858Z,61.29
2016-06-29T14:05:17.460Z,60.91
2016-06-29T14:06:17.470Z,61
2016-06-29T14:07:17.474Z,60.71
2016-06-29T14:08:17.847Z,60.61
2016-06-29T14:09:16.869Z,60.61
2016-06-29T14:10:16.883Z,60.03
2016-06-29T14:11:17.490Z,59.64
2016-06-29T14:12:17.497Z,60.13
2016-06-29T14:13:17.519Z,59.19
2016-06-29T14:14:18.309Z,59.48
2016-06-29T14:15:16.911Z,59.48
2016-06-29T14:16:17.327Z,59.77
2016-06-29T14:17:17.821Z,59.38
2016-06-29T14:18:17.030Z,59.09
2016-06-29T14:19:16.930Z,58.8
2016-06-29T14:20:17.549Z,58.83
2016-06-29T14:21:17.546Z,58.25
2016-06-29T14:22:16.949Z,58.25
2016-06-29T14:23:18.373Z,57.67
2016-06-29T14:24:17.708Z,57.31
2016-06-29T14:26:18.381Z,56.46
2016-06-29T14:27:16.978Z,55.98
2016-06-29T14:28:17.239Z,56.16
2016-06-29T14:29:17.648Z,55.1
2016-06-29T14:30:16.990Z,55.03
2016-06-29T14:31:17.620Z,54.32
2016-06-29T14:32:17.626Z,54.03
2016-06-29T14:33:17.015Z,53.64
2016-06-29T14:34:17.016Z,52.96
2016-06-29T14:35:17.658Z,52.86
2016-06-29T14:36:17.034Z,52.55
2016-06-29T14:37:17.657Z,52.74
2016-06-29T14:38:17.660Z,52.45
2016-06-29T14:39:17.068Z,52.13
2016-06-29T14:40:17.066Z,52.03
2016-06-29T14:41:17.084Z,51.65
2016-06-29T14:42:17.696Z,51.16
2016-06-29T14:43:17.691Z,50.16
2016-06-29T14:44:17.691Z,50.46
2016-06-29T14:45:17.706Z,50.74
2016-06-29T14:46:17.711Z,50.36
2016-06-29T14:47:17.714Z,50.07
2016-06-29T14:48:17.730Z,49.75
2016-06-29T14:49:17.142Z,49.66
2016-06-29T14:50:17.745Z,48.39
2016-06-29T14:51:17.769Z,48.2
2016-06-29T14:52:17.141Z,47.72
2016-06-29T14:53:17.752Z,47.91
2016-06-29T14:54:17.758Z,47.13
2016-06-29T14:55:17.164Z,46.94
2016-06-29T14:56:17.769Z,46.75
2016-06-29T14:57:17.781Z,45.68
2016-06-29T14:58:17.176Z,45.68
2016-06-29T14:59:17.183Z,45.78
2016-06-29T15:00:17.802Z,45.39
2016-06-29T15:01:17.801Z,45.2
2016-06-29T15:02:17.207Z,45.1
2016-06-29T15:03:17.197Z,44.61
2016-06-29T15:04:17.814Z,44.23
2016-06-29T15:05:17.818Z,44.13
2016-06-29T15:06:17.838Z,44.03
2016-06-29T15:07:17.821Z,43.84
2016-06-29T15:08:17.842Z,43.45
2016-06-29T15:09:17.830Z,43.35
2016-06-29T15:10:17.848Z,43.26
2016-06-29T15:11:17.860Z,42.89
2016-06-29T15:12:17.243Z,43.47
2016-06-29T15:13:17.883Z,43.16
2016-06-29T15:14:17.876Z,42.48
2016-06-29T15:15:17.272Z,42.21
2016-06-29T15:16:19.910Z,41.92
2016-06-29T15:17:18.619Z,41.33
2016-06-29T15:18:18.921Z,41.14
2016-06-29T15:19:17.853Z,41.14
2016-06-29T15:20:17.902Z,41.05
2016-06-29T15:21:18.023Z,40.36
2016-06-29T15:22:17.937Z,40.66
2016-06-29T15:23:17.309Z,40.85
2016-06-29T15:24:17.926Z,40.36
2016-06-29T15:26:18.461Z,40.15
2016-06-29T15:27:17.333Z,40.05
2016-06-29T15:28:17.937Z,39.86
2016-06-29T15:29:17.352Z,39.67
2016-06-29T15:30:18.735Z,39.08
2016-06-29T15:31:17.967Z,39.28
2016-06-29T15:32:18.873Z,38.99
2016-06-29T15:34:17.627Z,38.5
2016-06-29T15:35:18.011Z,38.6
2016-06-29T15:36:18.242Z,38.7
2016-06-29T15:37:17.998Z,38.87
2016-06-29T15:38:18.112Z,38.68
2016-06-29T15:39:18.032Z,38.96
2016-06-29T15:40:18.035Z,39.26
2016-06-29T15:42:18.088Z,38.87
2016-06-29T15:43:17.426Z,39.74
2016-06-29T15:44:18.303Z,40.03
2016-06-29T15:45:18.044Z,40.13
2016-06-29T15:46:17.443Z,40.11
2016-06-29T15:47:17.461Z,40.4
2016-06-29T15:48:17.449Z,40.61
2016-06-29T15:49:18.101Z,40.5
2016-06-29T15:50:17.467Z,40.5
2016-06-29T15:51:18.082Z,40.69
2016-06-29T15:52:18.079Z,40.69
2016-06-29T15:53:18.085Z,40.89
2016-06-29T15:54:17.480Z,41.08
2016-06-29T15:55:18.117Z,41.08
2016-06-29T15:56:18.089Z,41.08
2016-06-29T15:57:18.104Z,40.99
2016-06-29T15:58:18.113Z,40.5
2016-06-29T15:59:18.125Z,40.4
2016-06-29T16:00:18.123Z,40.01
2016-06-29T16:01:17.505Z,39.41
2016-06-29T16:02:17.521Z,38.93
2016-06-29T16:03:18.142Z,38.93
2016-06-29T16:04:17.521Z,39.41
2016-06-29T16:05:17.546Z,38.93
2016-06-29T16:06:18.163Z,39.03
2016-06-29T16:07:18.164Z,39.12
2016-06-29T16:08:17.550Z,38.83
2016-06-29T16:09:18.177Z,38.83
2016-06-29T16:10:18.185Z,38.93
2016-06-29T16:11:18.183Z,38.83
2016-06-29T16:12:18.179Z,38.73
2016-06-29T16:13:18.213Z,38.45
2016-06-29T16:14:17.592Z,38.62
2016-06-29T16:15:17.582Z,38.53
2016-06-29T16:16:18.206Z,39.01
2016-06-29T16:17:18.199Z,38.53
2016-06-29T16:18:17.596Z,38.33
2016-06-29T16:19:17.598Z,38.43
2016-06-29T16:20:17.634Z,38.43
2016-06-29T16:21:18.222Z,38.33
2016-06-29T16:22:17.620Z,37.85
2016-06-29T16:23:18.231Z,37.55
2016-06-29T16:24:17.622Z,37.46
2016-06-29T16:25:17.634Z,37.75
2016-06-29T16:26:17.630Z,37.55
2016-06-29T16:27:17.631Z,37.46
2016-06-29T16:28:17.632Z,37.34
2016-06-29T16:29:17.642Z,37.63
2016-06-29T16:30:17.652Z,37.34
2016-06-29T16:31:18.276Z,36.86
2016-06-29T16:32:18.262Z,36.66
2016-06-29T16:33:17.681Z,36.28
2016-06-29T16:34:18.272Z,35.89
2016-06-29T16:35:17.658Z,35.02
2016-06-29T16:36:17.667Z,34.63
2016-06-29T16:37:18.285Z,35.31
2016-06-29T16:38:17.679Z,35.5
2016-06-29T16:39:17.686Z,35.12
2016-06-29T16:40:17.686Z,35.41
2016-06-29T16:41:17.709Z,35.02
2016-06-29T16:42:18.300Z,34.92
2016-06-29T16:43:17.703Z,34.83
2016-06-29T16:44:18.318Z,34.25
2016-06-29T16:45:17.710Z,34.05
2016-06-29T16:46:18.326Z,34.25
2016-06-29T16:47:18.321Z,33.95
2016-06-29T16:48:18.327Z,34.25
2016-06-29T16:49:18.338Z,34.15
2016-06-29T16:50:18.330Z,34.25
2016-06-29T16:51:18.342Z,34.05
2016-06-29T16:52:17.827Z,34.52
2016-06-29T16:53:18.568Z,34.62
2016-06-29T16:54:18.047Z,34.81
2016-06-29T16:55:18.299Z,34.81
2016-06-29T16:56:18.359Z,34.81
2016-06-29T16:57:17.745Z,34.62
2016-06-29T16:58:17.746Z,35
2016-06-29T16:59:17.764Z,34.81
2016-06-29T17:01:17.773Z,34.81
2016-06-29T17:02:19.291Z,34.62
2016-06-29T17:03:18.423Z,34.62
2016-06-29T17:04:18.392Z,34.81
2016-06-29T17:05:18.400Z,34.52
2016-06-29T17:06:17.797Z,35
2016-06-29T17:07:17.961Z,34.62
2016-06-29T17:08:17.799Z,34.62
2016-06-29T17:09:17.819Z,34.52
2016-06-29T17:10:18.435Z,34.52
2016-06-29T17:11:17.820Z,34.91
2016-06-29T17:12:17.803Z,35
2016-06-29T17:13:18.414Z,35
2016-06-29T17:14:18.422Z,35.1
2016-06-29T17:15:17.824Z,34.99
2016-06-29T17:16:17.819Z,34.89
2016-06-29T17:17:17.835Z,34.7
2016-06-29T17:18:18.443Z,35.37
2016-06-29T17:19:17.834Z,35.66
2016-06-29T17:20:17.854Z,35.86
2016-06-29T17:21:18.451Z,35.86
2016-06-29T17:22:18.447Z,35.95
2016-06-29T17:23:17.846Z,36.24
2016-06-29T17:24:17.847Z,36.05
2016-06-29T17:25:18.464Z,36.15
2016-06-29T17:26:18.459Z,36.44
2016-06-29T17:27:17.853Z,36.72
2016-06-29T17:28:18.474Z,36.92
2016-06-29T17:29:17.862Z,37.21
2016-06-29T17:30:17.870Z,37.19
2016-06-29T17:31:18.490Z,37.3
2016-06-29T17:32:18.488Z,37.3
2016-06-29T17:33:18.502Z,37.12
2016-06-29T17:35:19.976Z,37.1
2016-06-29T17:36:19.315Z,37.19
2016-06-29T17:37:17.904Z,37.19
2016-06-29T17:38:18.510Z,37.29
2016-06-29T17:39:18.507Z,37.77
2016-06-29T17:40:18.511Z,37.38
2016-06-29T17:41:17.905Z,37.67
2016-06-29T17:42:18.521Z,37.38
2016-06-29T17:43:17.913Z,37.96
2016-06-29T17:44:20.201Z,37.87
2016-06-29T17:45:17.925Z,38.25
2016-06-29T17:46:18.879Z,38.25
2016-06-29T17:47:17.927Z,37.96
2016-06-29T17:48:17.929Z,38.14
2016-06-29T17:49:18.537Z,38.23
2016-06-29T17:50:18.566Z,38.62
2016-06-29T17:51:18.554Z,38.53
2016-06-29T17:52:18.547Z,38.81
2016-06-29T17:53:17.942Z,38.62
2016-06-29T17:54:18.573Z,38.91
2016-06-29T17:55:18.560Z,39.2
2016-06-29T17:56:17.954Z,39.01
2016-06-29T17:57:17.963Z,39.11
2016-06-29T17:58:18.569Z,38.91
2016-06-29T17:59:17.968Z,39.28
2016-06-29T18:00:17.970Z,39.2
2016-06-29T18:01:18.572Z,39.37
2016-06-29T18:02:17.978Z,39.76
2016-06-29T18:03:17.991Z,39.95
2016-06-29T18:04:17.983Z,40.05
2016-06-29T18:05:18.599Z,40.24
2016-06-29T18:06:18.593Z,40.05
2016-06-29T18:07:18.593Z,40.15
2016-06-29T18:08:18.592Z,40.44
2016-06-29T18:09:32.855Z,40.53
2016-06-29T18:10:17.986Z,40.24
2016-06-29T18:11:18.596Z,40.24
2016-06-29T18:12:18.136Z,40.8
2016-06-29T18:13:17.997Z,41.5
2016-06-29T18:14:18.253Z,40.82
2016-06-29T18:15:18.615Z,40.9
2016-06-29T18:16:18.001Z,40.8
2016-06-29T18:17:18.006Z,40.7
2016-06-29T18:18:17.999Z,40.8
2016-06-29T18:19:18.618Z,40.7
2016-06-29T18:20:19.273Z,40.8
2016-06-29T18:21:18.617Z,40.8
2016-06-29T18:22:18.011Z,40.9
2016-06-29T18:23:18.016Z,40.99
2016-06-29T18:24:18.737Z,40.9
2016-06-29T18:25:18.629Z,40.8
2016-06-29T18:26:18.638Z,41.28
2016-06-29T18:27:18.635Z,41.19
2016-06-29T18:28:18.031Z,40.99
2016-06-29T18:29:18.634Z,40.99
2016-06-29T18:30:18.644Z,41.19
2016-06-29T18:31:18.663Z,40.99
2016-06-29T18:32:18.664Z,41.07
2016-06-29T18:33:18.663Z,41.07
2016-06-29T18:34:18.051Z,41.17
2016-06-29T18:35:18.658Z,41.55
2016-06-29T18:36:18.046Z,41.46
2016-06-29T18:37:18.665Z,41.94
2016-06-29T18:38:18.058Z,41.94
2016-06-29T18:39:18.668Z,42.13
2016-06-29T18:40:18.054Z,42.42
2016-06-29T18:41:18.664Z,42.03
2016-06-29T18:42:18.681Z,42.32
2016-06-29T18:43:18.676Z,42.32
2016-06-29T18:44:18.054Z,42.69
2016-06-29T18:45:18.690Z,42.88
2016-06-29T18:46:18.697Z,42.79
2016-06-29T18:47:18.059Z,43.37
2016-06-29T18:48:18.084Z,43.07
2016-06-29T18:49:18.071Z,43.37
2016-06-29T18:50:18.681Z,43.27
2016-06-29T18:51:18.677Z,43.65
2016-06-29T18:52:18.684Z,43.55
2016-06-29T18:53:19.951Z,43.55
2016-06-29T18:54:18.689Z,43.55
2016-06-29T18:55:18.110Z,43.55
2016-06-29T18:56:18.686Z,43.82
2016-06-29T18:57:18.708Z,43.92
2016-06-29T18:58:19.040Z,43.92
2016-06-29T18:59:18.096Z,43.82
2016-06-29T19:00:18.697Z,43.82
2016-06-29T19:01:18.709Z,43.92
2016-06-29T19:02:18.803Z,44.02
2016-06-29T19:03:18.723Z,44.11
2016-06-29T19:04:18.966Z,44.02
2016-06-29T19:05:19.177Z,44.21
2016-06-29T19:06:18.710Z,44.21
2016-06-29T19:07:18.753Z,44.4
2016-06-29T19:08:18.719Z,44.49
2016-06-29T19:09:18.101Z,44.59
2016-06-29T19:10:18.716Z,44.79
2016-06-29T19:11:18.107Z,44.76
2016-06-29T19:12:18.717Z,44.96
2016-06-29T19:13:18.719Z,44.86
2016-06-29T19:14:18.709Z,45.15
2016-06-29T19:15:18.715Z,45.15
2016-06-29T19:16:18.742Z,45.34
2016-06-29T19:17:18.780Z,45.7
2016-06-29T19:18:18.809Z,45.83
2016-06-29T19:19:18.835Z,45.8
2016-06-29T19:20:18.933Z,45.99
2016-06-29T19:21:18.864Z,46.47
2016-06-29T19:22:18.112Z,46.57
2016-06-29T19:23:18.118Z,46.86
2016-06-29T19:24:18.730Z,46.86
2016-06-29T19:25:18.737Z,47.13
2016-06-29T19:26:18.732Z,47.51
2016-06-29T19:27:18.737Z,47.7
2016-06-29T19:28:19.840Z,48.08
2016-06-29T19:29:33.044Z,47.99
2016-06-29T19:30:19.229Z,48.47
2016-06-29T19:31:18.741Z,48.57
2016-06-29T19:32:18.141Z,48.54
2016-06-29T19:33:18.147Z,49.22
2016-06-29T19:34:18.142Z,49.22
2016-06-29T19:35:18.127Z,49.12
2016-06-29T19:36:18.139Z,49.41
2016-06-29T19:37:18.740Z,49.6
2016-06-29T19:38:18.122Z,49.69
2016-06-29T19:39:18.742Z,50.27
2016-06-29T19:40:18.746Z,50.54
2016-06-29T19:41:18.747Z,50.54
2016-06-29T19:42:18.806Z,50.63
2016-06-29T19:43:18.765Z,50.34
2016-06-29T19:44:18.958Z,50.82
2016-06-29T19:45:18.129Z,51.31
2016-06-29T19:46:18.759Z,51.31
2016-06-29T19:47:18.729Z,51.59
2016-06-29T19:48:19.087Z,51.47
2016-06-29T19:49:18.744Z,51.57
2016-06-29T19:50:18.139Z,51.76
2016-06-29T19:51:18.755Z,51.76
2016-06-29T19:52:18.743Z,51.76
2016-06-29T19:53:18.750Z,52.05
2016-06-29T19:54:18.771Z,52.14
2016-06-29T19:55:18.740Z,51.95
2016-06-29T19:56:18.127Z,51.95
2016-06-29T19:57:18.741Z,51.95
2016-06-29T19:58:18.744Z,52.05
2016-06-29T19:59:18.735Z,51.95
2016-06-29T20:00:18.753Z,52.12
2016-06-29T20:01:18.128Z,52.4
2016-06-29T20:02:18.746Z,53.08
2016-06-29T20:03:18.761Z,53.08
2016-06-29T20:04:18.740Z,53.08
2016-06-29T20:05:18.135Z,52.98
2016-06-29T20:06:18.740Z,52.89
2016-06-29T20:07:18.739Z,52.98
2016-06-29T20:08:18.128Z,53.27
2016-06-29T20:09:18.769Z,53.46
2016-06-29T20:10:18.740Z,53.27
2016-06-29T20:11:18.747Z,53.46
2016-06-29T20:12:19.654Z,53.56
2016-06-29T20:13:19.779Z,53.17
2016-06-29T20:14:18.129Z,53.46
2016-06-29T20:15:18.119Z,53.27
2016-06-29T20:16:18.126Z,53.94
2016-06-29T20:17:18.138Z,54.23
2016-06-29T20:18:18.736Z,53.94
2016-06-29T20:19:18.146Z,53.94
2016-06-29T20:20:18.731Z,54.23
2016-06-29T20:22:20.224Z,54.01
2016-06-29T20:23:19.080Z,53.91
2016-06-29T20:24:19.722Z,54.01
2016-06-29T20:25:19.572Z,53.91
2016-06-29T20:26:19.283Z,54.21
2016-06-29T20:27:18.120Z,54.49
2016-06-29T20:28:18.741Z,54.68
2016-06-29T20:29:18.111Z,55.35
2016-06-29T20:30:18.730Z,55.26
2016-06-29T20:31:18.122Z,55.45
2016-06-29T20:32:18.110Z,55.64
2016-06-29T20:33:18.718Z,55.45
2016-06-29T20:34:18.111Z,55.83
2016-06-29T20:35:18.718Z,56.09
2016-06-29T20:36:18.712Z,55.8
2016-06-29T20:37:18.727Z,56.38
2016-06-29T20:38:18.733Z,56.48
2016-06-29T20:39:18.109Z,56.86
2016-06-29T20:40:18.113Z,56.67
2016-06-29T20:41:18.716Z,57.53
2016-06-29T20:42:18.720Z,57.63
2016-06-29T20:43:18.112Z,57.63
2016-06-29T20:44:18.099Z,57.06
2016-06-29T20:45:18.709Z,56.96
2016-06-29T20:46:19.708Z,57.6
2016-06-29T20:47:18.101Z,57.7
2016-06-29T20:48:18.858Z,57.92
2016-06-29T20:49:18.507Z,57.79
2016-06-29T20:50:18.717Z,58.08
2016-06-29T20:51:18.706Z,58.37
2016-06-29T20:52:18.696Z,58.49
2016-06-29T20:53:18.097Z,59.04
2016-06-29T20:54:18.142Z,58.56
2016-06-29T20:55:18.900Z,59.23
2016-06-29T20:56:18.997Z,58.94
2016-06-29T20:57:18.092Z,59.9
2016-06-29T20:58:18.761Z,60.19
2016-06-29T20:59:18.103Z,60.38
2016-06-29T21:00:18.083Z,61.34
2016-06-29T21:01:18.703Z,61.15
2016-06-29T21:02:18.700Z,61.82
2016-06-29T21:03:18.692Z,61.82
2016-06-29T21:04:18.696Z,61.98
2016-06-29T21:05:18.692Z,62.07
2016-06-29T21:06:18.679Z,62.74
2016-06-29T21:07:18.685Z,62.84
2016-06-29T21:08:18.081Z,62.93
2016-06-29T21:09:18.679Z,62.65
2016-06-29T21:10:18.700Z,62.74
2016-06-29T21:11:18.694Z,63.32
2016-06-29T21:12:18.679Z,63.22
2016-06-29T21:13:18.693Z,63.22
2016-06-29T21:14:18.686Z,63.7
2016-06-29T21:15:18.674Z,63.42
2016-06-29T21:16:18.679Z,63.99
2016-06-29T21:17:18.683Z,63.89
2016-06-29T21:18:18.680Z,63.99
2016-06-29T21:19:18.059Z,63.86
2016-06-29T21:20:18.666Z,63.57
2016-06-29T21:21:18.062Z,63.96
2016-06-29T21:22:18.066Z,64.43
2016-06-29T21:23:18.053Z,64.25
2016-06-29T21:24:18.050Z,64.15
2016-06-29T21:25:18.042Z,64.63
2016-06-29T21:26:18.049Z,64.72
2016-06-29T21:27:18.657Z,65.39
2016-06-29T21:28:18.652Z,65.11
2016-06-29T21:29:18.662Z,65.11
2016-06-29T21:31:18.659Z,65.88
2016-06-29T21:32:18.649Z,65.49
2016-06-29T21:33:19.341Z,65.88
2016-06-29T21:34:18.645Z,65.58
2016-06-29T21:35:18.649Z,65.58
2016-06-29T21:36:18.705Z,65.78
2016-06-29T21:37:18.037Z,65.88
2016-06-29T21:38:18.632Z,65.78
2016-06-29T21:39:18.945Z,66.32
2016-06-29T21:40:20.494Z,66.7
2016-06-29T21:41:18.630Z,66.7
2016-06-29T21:42:18.629Z,66.51
2016-06-29T21:43:19.532Z,67.08
2016-06-29T21:44:18.632Z,67.18
2016-06-29T21:45:18.619Z,67.18
2016-06-29T21:46:18.017Z,67.18
2016-06-29T21:47:18.010Z,67.08
2016-06-29T21:48:18.609Z,67.27
2016-06-29T21:49:18.013Z,67.18
2016-06-29T21:50:18.620Z,67.37
2016-06-29T21:51:18.631Z,67.56
2016-06-29T21:52:18.611Z,67.56
2016-06-29T21:53:18.002Z,67.47
2016-06-29T21:54:18.636Z,67.66
2016-06-29T21:55:18.001Z,67.37
2016-06-29T21:56:18.609Z,67.27
2016-06-29T21:57:17.997Z,67.6
2016-06-29T21:58:17.987Z,67.69
2016-06-29T21:59:18.609Z,67.41
2016-06-29T22:00:17.981Z,67.21
2016-06-29T22:01:18.599Z,67.31
2016-06-29T22:02:18.589Z,67.6
2016-06-29T22:03:18.596Z,67.6
2016-06-29T22:04:17.987Z,67.31
2016-06-29T22:05:18.373Z,67.41
2016-06-29T22:06:18.580Z,67.79
2016-06-29T22:08:18.576Z,67.88
2016-06-29T22:09:18.570Z,67.79
2016-06-29T22:10:18.217Z,67.98
2016-06-29T22:11:18.578Z,67.21
2016-06-29T22:12:18.578Z,67.21
2016-06-29T22:13:18.570Z,67.69